Bangkok (Don Mueang), Thailand

8:01 PM ICT on December 26, 2014 (GMT +0700)
Khu Khot | Change Station
CLOSE
Current Station
Personal Weather Station
Location: Pathum Thani, PATHUM THANI
Elevation: 15 ft
Nearby Weather Stations

Elev 15 ft 13.96 °N, 100.65 °E | Updated 44 seconds ago

Scattered Clouds
Scattered Clouds
84.4 °F
Feels Like 91 °F
N
0.0
Wind Variable Wind from SSW
Gusts 0.0 mph

Today
High -- | Low -- °F
--% Chance of Precip.
Yesterday
High -- | Low -- °F
Precip. -- in
6:38 AM 5:57 PM
Waxing Crescent, 25% visible
Pressure 29.80 in
Visibility 6.2 miles
Clouds Few 3000 ft
Scattered Clouds 30000 ft
Heat Index 91 °F
Dew Point 74 °F
Humidity 70%
Rainfall 0.00 in
Snow Depth Not available.
UV 0 out of 12
Pollen Not available.
Air Quality Not available.
Flu Activity Not available.
METAR VTBD 261230Z 34005KT 310V010 9999 FEW030 SCT300 30/22 Q1009 NOSIG

More Conditions Fewer Conditions

Pressure 29.80 in
Visibility 6.2 miles
Clouds Few 3000 ft
Scattered Clouds 30000 ft
Heat Index 91 °F
Dew Point 74 °F
Humidity 70%
Rainfall 0.00 in
Snow Depth Not available.
UV 0 out of 12
Pollen Not available.
Air Quality Not available.
Flu Activity Not available.
METAR VTBD 261230Z 34005KT 310V010 9999 FEW030 SCT300 30/22 Q1009 NOSIG

More Conditions Fewer Conditions

10-Day Weather Forecast

Almanac

Astronomy

Dec. 26, 2014 Rise Set
Actual Time
Civil Twilight
Nautical Twilight
Astronomical Twilight
Moon
Length of Visible Light
Length of Day
Tomorrow will be .
, % of the Moon is Illuminated

Today's Extremes

Country Highs Country Lows

Community

WunderPhotos

Upload Photos

1,780,589 photos uploaded!

WunderBlogs® & News

Nearby

Air Quality

  Air Quality AQ Index Pollutant
Not available.

Snow Depth

Station Depth Elevation

Earthquake Activity

City Distance Mag. Time & Date
Minimum magnitude displayed is 2.5.

Coastal Water Temperatures

Place Temperature

Nearby Weather Stations